createdAt,value
2023-02-24T00:01:51.488Z,7.14
2023-02-24T00:04:21.533Z,7.07
2023-02-24T00:06:50.204Z,7.30
2023-02-24T00:09:20.087Z,6.73
2023-02-24T00:11:49.766Z,6.99
2023-02-24T00:14:18.887Z,7.09
2023-02-24T00:16:48.899Z,6.88
2023-02-24T00:19:19.147Z,7.21
2023-02-24T00:21:47.191Z,7.03
2023-02-24T00:24:15.433Z,6.83
2023-02-24T00:26:43.429Z,6.64
2023-02-24T00:29:13.466Z,7.24
2023-02-24T00:31:43.219Z,6.94
2023-02-24T00:34:15.056Z,7.23
2023-02-24T00:36:43.085Z,7.26
2023-02-24T00:39:11.021Z,7.06
2023-02-24T00:41:40.941Z,7.80
2023-02-24T00:44:13.362Z,7.53
2023-02-24T00:46:44.654Z,7.55
2023-02-24T00:49:17.184Z,7.51
2023-02-24T00:51:48.649Z,6.88
2023-02-24T00:54:17.353Z,7.34
2023-02-24T00:56:46.797Z,7.04
2023-02-24T00:59:16.188Z,6.74
2023-02-24T01:01:45.201Z,6.97
2023-02-24T01:04:15.741Z,7.09
2023-02-24T01:06:45.954Z,7.03
2023-02-24T01:09:15.928Z,6.90
2023-02-24T01:12:17.349Z,7.40
2023-02-24T01:14:47.703Z,7.05
2023-02-24T01:17:18.225Z,7.51
2023-02-24T01:19:49.416Z,7.67
2023-02-24T01:22:19.839Z,7.53
2023-02-24T01:24:48.676Z,7.21
2023-02-24T01:27:18.594Z,7.22
2023-02-24T01:29:46.803Z,7.95
2023-02-24T01:32:18.634Z,7.62
2023-02-24T01:34:52.130Z,7.90
2023-02-24T01:37:20.493Z,7.92
2023-02-24T01:39:49.256Z,7.70
2023-02-24T01:42:19.977Z,8.02
2023-02-24T01:45:13.010Z,7.94
2023-02-24T01:47:42.132Z,7.74
2023-02-24T01:50:15.177Z,7.71
2023-02-24T01:52:46.212Z,7.62
2023-02-24T01:55:20.141Z,7.85
2023-02-24T01:57:50.110Z,7.57
2023-02-24T02:00:37.051Z,7.55
2023-02-24T02:03:13.891Z,7.65
2023-02-24T02:05:45.247Z,8.29
2023-02-24T02:08:14.576Z,8.22
2023-02-24T02:10:44.317Z,7.76
2023-02-24T02:13:14.233Z,7.54
2023-02-24T02:15:57.762Z,7.93
2023-02-24T02:18:34.473Z,8.20
2023-02-24T02:21:33.131Z,8.21
2023-02-24T02:24:25.934Z,8.07
2023-02-24T02:27:19.879Z,7.84
2023-02-24T02:30:24.763Z,7.88
2023-02-24T02:33:21.531Z,7.29
2023-02-24T02:36:00.627Z,7.94
2023-02-24T02:38:35.456Z,7.78
2023-02-24T02:41:13.465Z,7.63
2023-02-24T02:43:48.970Z,7.61
2023-02-24T02:46:34.620Z,7.42
2023-02-24T02:49:12.264Z,7.27
2023-02-24T02:51:45.931Z,7.62
2023-02-24T02:54:18.776Z,7.39
2023-02-24T02:56:52.818Z,7.68
2023-02-24T02:59:25.113Z,7.76
2023-02-24T03:02:01.197Z,7.04
2023-02-24T03:04:30.892Z,7.71
2023-02-24T03:07:03.771Z,7.32
2023-02-24T03:09:36.127Z,6.76
2023-02-24T03:12:08.317Z,7.22
2023-02-24T03:14:40.899Z,7.39
2023-02-24T03:17:14.903Z,7.25
2023-02-24T03:19:43.819Z,7.04
2023-02-24T03:22:17.687Z,7.51
2023-02-24T03:24:46.537Z,7.52
2023-02-24T03:27:21.076Z,7.43
2023-02-24T03:29:53.704Z,7.56
2023-02-24T03:32:26.824Z,7.23
2023-02-24T03:34:59.603Z,7.53
2023-02-24T03:37:30.390Z,7.88
2023-02-24T03:39:59.861Z,7.50
2023-02-24T03:42:31.753Z,8.01
2023-02-24T03:44:59.451Z,7.66
2023-02-24T03:47:27.779Z,7.66
2023-02-24T03:49:55.479Z,7.57
2023-02-24T03:52:35.697Z,7.64
2023-02-24T03:55:21.300Z,7.69
2023-02-24T03:58:04.367Z,7.60
2023-02-24T04:00:39.631Z,7.53
2023-02-24T04:03:19.661Z,7.62
2023-02-24T04:05:57.013Z,7.57
2023-02-24T04:08:31.008Z,7.72
2023-02-24T04:11:05.302Z,6.84
2023-02-24T04:13:37.209Z,7.16
2023-02-24T04:16:16.964Z,7.08
2023-02-24T04:18:49.436Z,7.48
2023-02-24T04:21:20.255Z,7.20
2023-02-24T04:23:50.702Z,7.24
2023-02-24T04:26:20.742Z,6.84
2023-02-24T04:28:49.574Z,7.22
2023-02-24T04:31:18.880Z,7.41
2023-02-24T04:33:50.239Z,6.95
2023-02-24T04:36:18.634Z,7.07
2023-02-24T04:38:47.177Z,7.81
2023-02-24T04:41:21.491Z,7.75
2023-02-24T04:43:50.859Z,6.71
2023-02-24T04:46:18.932Z,7.47
2023-02-24T04:48:47.096Z,6.83
2023-02-24T04:51:14.819Z,7.08
2023-02-24T04:53:42.563Z,7.52
2023-02-24T04:56:10.254Z,7.27
2023-02-24T04:58:41.583Z,6.94
2023-02-24T05:01:11.455Z,6.49
2023-02-24T05:03:42.412Z,7.00
2023-02-24T05:06:16.039Z,7.27
2023-02-24T05:08:44.060Z,7.15
2023-02-24T05:11:15.919Z,6.66
2023-02-24T05:13:47.129Z,6.86
2023-02-24T05:16:17.629Z,6.84
2023-02-24T05:18:45.658Z,6.98
2023-02-24T05:21:32.569Z,6.80
2023-02-24T05:24:06.446Z,6.36
2023-02-24T05:26:35.880Z,6.54
2023-02-24T05:29:06.803Z,6.71
2023-02-24T05:31:34.974Z,6.76
2023-02-24T05:34:05.195Z,7.01
2023-02-24T05:36:36.260Z,7.36
2023-02-24T05:39:07.720Z,6.29
2023-02-24T05:41:38.801Z,6.76
2023-02-24T05:44:09.669Z,6.88
2023-02-24T05:46:39.116Z,6.86
2023-02-24T05:49:09.846Z,6.39
2023-02-24T05:51:43.218Z,6.70
2023-02-24T05:54:14.455Z,6.51
2023-02-24T05:56:43.811Z,6.39
2023-02-24T05:59:18.248Z,6.87
2023-02-24T06:01:46.642Z,6.40
2023-02-24T06:04:21.092Z,6.29
2023-02-24T06:06:52.482Z,6.66
2023-02-24T06:09:23.354Z,6.14
2023-02-24T06:11:51.546Z,6.88
2023-02-24T06:14:22.292Z,6.23
2023-02-24T06:16:51.009Z,6.99
2023-02-24T06:19:18.774Z,6.89
2023-02-24T06:21:46.548Z,6.70
2023-02-24T06:24:18.013Z,6.41
2023-02-24T06:26:46.618Z,6.61
2023-02-24T06:29:15.658Z,6.48
2023-02-24T06:31:45.715Z,6.49
2023-02-24T06:34:14.892Z,6.22
2023-02-24T06:36:43.174Z,6.86
2023-02-24T06:39:14.482Z,6.26
2023-02-24T06:41:42.811Z,7.02
2023-02-24T06:44:10.551Z,6.32
2023-02-24T06:46:39.759Z,6.52
2023-02-24T06:49:09.926Z,6.40
2023-02-24T06:51:37.649Z,6.73
2023-02-24T06:54:06.170Z,6.25
2023-02-24T06:56:38.427Z,6.30
2023-02-24T06:59:11.957Z,6.49
2023-02-24T07:01:45.265Z,6.53
2023-02-24T07:04:26.398Z,6.78
2023-02-24T07:06:58.359Z,6.15
2023-02-24T07:09:27.457Z,5.99
2023-02-24T07:11:56.762Z,6.40
2023-02-24T07:14:26.942Z,6.01
2023-02-24T07:16:55.420Z,5.85
2023-02-24T07:19:26.509Z,6.08
2023-02-24T07:22:00.056Z,5.68
2023-02-24T07:24:33.174Z,5.94
2023-02-24T07:27:03.991Z,5.55
2023-02-24T07:29:33.355Z,5.31
2023-02-24T07:32:03.533Z,5.67
2023-02-24T07:34:33.787Z,5.41
2023-02-24T07:37:07.819Z,5.31
2023-02-24T07:39:36.778Z,5.59
2023-02-24T07:42:05.250Z,5.28
2023-02-24T07:44:33.207Z,5.04
2023-02-24T07:47:07.562Z,5.40
2023-02-24T07:49:37.279Z,4.75
2023-02-24T07:52:08.148Z,5.12
2023-02-24T07:54:36.497Z,4.91
2023-02-24T07:57:04.291Z,4.86
2023-02-24T07:59:33.829Z,4.77
2023-02-24T08:02:04.928Z,4.58
2023-02-24T08:04:33.935Z,5.14
2023-02-24T08:07:04.188Z,5.19
2023-02-24T08:10:08.817Z,5.11
2023-02-24T08:12:42.586Z,5.20
2023-02-24T08:15:18.027Z,5.14
2023-02-24T08:17:47.421Z,4.99
2023-02-24T08:20:25.929Z,4.55
2023-02-24T08:22:55.763Z,4.33
2023-02-24T08:25:35.284Z,4.82
2023-02-24T08:28:08.390Z,4.50
2023-02-24T08:30:45.310Z,4.33
2023-02-24T08:33:17.492Z,4.97
2023-02-24T08:35:45.700Z,3.88
2023-02-24T08:38:18.603Z,4.50
2023-02-24T08:40:55.115Z,4.69
2023-02-24T08:43:33.028Z,4.56
2023-02-24T08:46:04.600Z,4.91
2023-02-24T08:48:37.995Z,4.45
2023-02-24T08:51:10.808Z,4.31
2023-02-24T08:53:41.439Z,3.92
2023-02-24T08:56:11.810Z,4.33
2023-02-24T08:58:47.063Z,4.08
2023-02-24T09:01:24.227Z,4.54
2023-02-24T09:03:55.177Z,4.15
2023-02-24T09:06:26.550Z,4.26
2023-02-24T09:09:11.862Z,4.45
2023-02-24T09:11:44.250Z,4.39
2023-02-24T09:14:26.181Z,4.09
2023-02-24T09:17:05.360Z,4.47
2023-02-24T09:19:55.157Z,4.52
2023-02-24T09:22:32.449Z,4.30
2023-02-24T09:25:18.846Z,4.33
2023-02-24T09:27:52.179Z,4.32
2023-02-24T09:30:37.145Z,4.48
2023-02-24T09:33:17.701Z,4.48
2023-02-24T09:35:51.419Z,4.33
2023-02-24T09:38:21.088Z,4.30
2023-02-24T09:40:50.533Z,4.31
2023-02-24T09:43:21.718Z,4.43
2023-02-24T09:45:58.339Z,4.83
2023-02-24T09:48:44.538Z,4.59
2023-02-24T09:51:21.787Z,4.68
2023-02-24T09:53:53.590Z,4.48
2023-02-24T09:56:30.050Z,4.25
2023-02-24T09:59:10.331Z,4.64
2023-02-24T10:01:45.099Z,4.66
2023-02-24T10:04:34.548Z,4.58
2023-02-24T10:07:06.294Z,4.84
2023-02-24T10:09:38.668Z,4.84
2023-02-24T10:12:18.090Z,4.80
2023-02-24T10:14:53.013Z,4.75
2023-02-24T10:17:30.587Z,4.76
2023-02-24T10:20:02.466Z,4.85
2023-02-24T10:22:50.416Z,4.54
2023-02-24T10:25:36.712Z,5.05
2023-02-24T10:28:20.071Z,5.05
2023-02-24T10:31:04.057Z,4.79
2023-02-24T10:33:38.934Z,5.04
2023-02-24T10:36:12.531Z,5.01
2023-02-24T10:38:45.331Z,5.00
2023-02-24T10:41:14.099Z,5.14
2023-02-24T10:43:56.045Z,5.57
2023-02-24T10:46:40.001Z,5.55
2023-02-24T10:49:16.618Z,5.53
2023-02-24T10:51:52.252Z,5.67
2023-02-24T10:54:44.892Z,5.23
2023-02-24T10:57:18.745Z,5.58
2023-02-24T11:00:10.653Z,5.34
2023-02-24T11:02:56.690Z,5.97
2023-02-24T11:05:38.519Z,5.92
2023-02-24T11:08:09.586Z,6.04
2023-02-24T11:10:53.261Z,6.13
2023-02-24T11:13:39.540Z,5.95
2023-02-24T11:16:28.698Z,6.04
2023-02-24T11:18:57.988Z,6.03
2023-02-24T11:21:27.887Z,6.32
2023-02-24T11:23:59.527Z,6.42
2023-02-24T11:26:35.321Z,6.50
2023-02-24T11:29:30.833Z,6.60
2023-02-24T11:32:16.954Z,7.01
2023-02-24T11:34:52.135Z,6.77
2023-02-24T11:37:34.654Z,7.04
2023-02-24T11:40:08.548Z,6.19
2023-02-24T11:42:40.347Z,7.08
2023-02-24T11:45:19.088Z,7.73
2023-02-24T11:47:53.408Z,7.03
2023-02-24T11:50:33.062Z,7.58
2023-02-24T11:53:06.913Z,6.98
2023-02-24T11:55:42.408Z,6.81
2023-02-24T11:58:18.249Z,7.03
2023-02-24T12:00:54.917Z,6.87
2023-02-24T12:03:31.739Z,7.07
2023-02-24T12:06:18.015Z,6.96
2023-02-24T12:08:49.361Z,7.03
2023-02-24T12:11:21.963Z,7.23
2023-02-24T12:13:53.189Z,8.29
2023-02-24T12:16:26.704Z,8.05
2023-02-24T12:19:01.762Z,8.39
2023-02-24T12:21:35.613Z,8.11
2023-02-24T12:24:08.290Z,7.98
2023-02-24T12:26:42.823Z,7.66
2023-02-24T12:29:24.214Z,7.56
2023-02-24T12:31:57.362Z,7.18
2023-02-24T12:34:40.301Z,7.25
2023-02-24T12:37:34.787Z,7.43
2023-02-24T12:40:16.307Z,7.25
2023-02-24T12:42:53.177Z,7.21
2023-02-24T12:45:27.776Z,7.83
2023-02-24T12:48:08.578Z,7.20
2023-02-24T12:50:50.315Z,7.19
2023-02-24T12:53:23.731Z,7.08
2023-02-24T12:56:06.384Z,6.79
2023-02-24T12:58:37.283Z,7.12
2023-02-24T13:01:16.062Z,7.60
2023-02-24T13:04:07.677Z,7.38
2023-02-24T13:06:59.137Z,7.18
2023-02-24T13:09:36.082Z,7.88
2023-02-24T13:12:12.741Z,8.17
2023-02-24T13:14:41.929Z,7.97
2023-02-24T13:17:22.285Z,7.46
2023-02-24T13:19:52.168Z,7.35
2023-02-24T13:22:31.170Z,7.22
2023-02-24T13:25:18.235Z,7.13
2023-02-24T13:27:57.174Z,7.55
2023-02-24T13:30:29.494Z,7.11
2023-02-24T13:33:02.977Z,7.36
2023-02-24T13:35:34.381Z,7.36
2023-02-24T13:38:23.046Z,7.47
2023-02-24T13:40:53.738Z,7.10
2023-02-24T13:43:27.793Z,7.52
2023-02-24T13:45:59.435Z,7.23
2023-02-24T13:48:56.285Z,7.44
2023-02-24T13:51:42.663Z,7.31
2023-02-24T13:54:26.526Z,7.06
2023-02-24T13:56:57.562Z,7.80
2023-02-24T13:59:43.653Z,8.33
2023-02-24T14:02:17.372Z,8.05
2023-02-24T14:04:51.302Z,8.22
2023-02-24T14:07:24.903Z,7.70
2023-02-24T14:09:58.804Z,8.16
2023-02-24T14:12:29.659Z,8.38
2023-02-24T14:14:58.022Z,8.26
2023-02-24T14:17:29.499Z,7.80
2023-02-24T14:20:09.690Z,8.23
2023-02-24T14:22:44.435Z,7.73
2023-02-24T14:25:15.678Z,8.00
2023-02-24T14:27:44.642Z,7.83
2023-02-24T14:30:25.076Z,7.70
2023-02-24T14:32:53.123Z,7.86
2023-02-24T14:35:24.757Z,7.61
2023-02-24T14:37:52.513Z,7.79
2023-02-24T14:40:25.397Z,7.66
2023-02-24T14:42:55.510Z,7.90
2023-02-24T14:45:26.174Z,7.41
2023-02-24T14:47:54.216Z,7.50
2023-02-24T14:50:31.480Z,7.35
2023-02-24T14:53:03.754Z,7.46
2023-02-24T14:55:37.338Z,7.59
2023-02-24T14:58:10.515Z,7.46
2023-02-24T15:00:42.613Z,7.43
2023-02-24T15:03:15.614Z,7.98
2023-02-24T15:05:46.451Z,7.61
2023-02-24T15:08:27.897Z,7.44
2023-02-24T15:10:57.240Z,7.66
2023-02-24T15:13:35.167Z,7.43
2023-02-24T15:16:12.514Z,7.93
2023-02-24T15:18:41.443Z,8.01
2023-02-24T15:21:20.676Z,7.73
2023-02-24T15:23:48.624Z,7.53
2023-02-24T15:26:31.614Z,7.45
2023-02-24T15:29:01.685Z,7.84
2023-02-24T15:31:30.452Z,7.33
2023-02-24T15:34:01.005Z,7.65
2023-02-24T15:36:32.762Z,7.92
2023-02-24T15:39:04.086Z,7.76
2023-02-24T15:41:41.879Z,8.16
2023-02-24T15:44:26.348Z,8.37
2023-02-24T15:46:54.732Z,7.97
2023-02-24T15:49:22.569Z,8.28
2023-02-24T15:51:51.653Z,7.46
2023-02-24T15:54:21.610Z,7.92
2023-02-24T15:56:50.788Z,7.92
2023-02-24T15:59:21.621Z,7.88
2023-02-24T16:01:51.843Z,8.24
2023-02-24T16:04:19.834Z,8.37
2023-02-24T16:06:54.661Z,8.36
2023-02-24T16:09:31.988Z,8.12
2023-02-24T16:12:02.422Z,8.13
2023-02-24T16:14:30.178Z,7.99
2023-02-24T16:16:57.938Z,8.45
2023-02-24T16:19:25.735Z,8.21
2023-02-24T16:21:53.471Z,8.48
2023-02-24T16:24:21.776Z,8.72
2023-02-24T16:26:49.974Z,8.61
2023-02-24T16:29:19.363Z,8.34
2023-02-24T16:31:47.315Z,8.41
2023-02-24T16:34:16.817Z,7.71
2023-02-24T16:36:44.643Z,8.29
2023-02-24T16:39:14.074Z,8.10
2023-02-24T16:41:41.866Z,8.04
2023-02-24T16:44:10.563Z,8.40
2023-02-24T16:46:45.046Z,8.12
2023-02-24T16:49:18.869Z,8.51
2023-02-24T16:51:46.717Z,8.34
2023-02-24T16:54:14.406Z,7.94
2023-02-24T16:56:42.107Z,8.45
2023-02-24T16:59:09.820Z,8.33
2023-02-24T17:01:38.983Z,8.22
2023-02-24T17:04:09.876Z,8.57
2023-02-24T17:06:37.661Z,8.63
2023-02-24T17:09:05.537Z,8.23
2023-02-24T17:11:33.958Z,8.30
2023-02-24T17:14:02.915Z,8.67
2023-02-24T17:16:30.732Z,8.21
2023-02-24T17:19:00.041Z,8.69
2023-02-24T17:21:33.463Z,8.64
2023-02-24T17:24:01.284Z,7.93
2023-02-24T17:26:29.054Z,7.67
2023-02-24T17:28:57.583Z,7.13
2023-02-24T17:31:28.658Z,7.18
2023-02-24T17:33:57.081Z,7.59
2023-02-24T17:36:26.610Z,8.10
2023-02-24T17:38:56.269Z,8.41
2023-02-24T17:41:24.817Z,8.06
2023-02-24T17:43:54.375Z,7.84
2023-02-24T17:46:22.887Z,7.98
2023-02-24T17:48:51.097Z,7.98
2023-02-24T17:51:20.269Z,8.18
2023-02-24T17:53:49.596Z,8.03
2023-02-24T17:56:17.329Z,8.13
2023-02-24T17:58:45.443Z,7.96
2023-02-24T18:01:13.150Z,7.83
2023-02-24T18:03:40.949Z,8.13
2023-02-24T18:06:11.169Z,7.89
2023-02-24T18:08:39.620Z,8.02
2023-02-24T18:11:09.881Z,8.42
2023-02-24T18:13:37.729Z,8.12
2023-02-24T18:16:10.074Z,8.09
2023-02-24T18:18:38.039Z,8.43
2023-02-24T18:21:08.412Z,8.09
2023-02-24T18:23:38.217Z,8.46
2023-02-24T18:26:09.004Z,8.28
2023-02-24T18:28:36.993Z,8.39
2023-02-24T18:31:11.906Z,8.52
2023-02-24T18:33:40.087Z,8.00
2023-02-24T18:36:09.126Z,8.30
2023-02-24T18:38:37.139Z,8.27
2023-02-24T18:41:07.291Z,8.37
2023-02-24T18:43:36.895Z,8.27
2023-02-24T18:46:06.992Z,8.13
2023-02-24T18:48:35.950Z,7.45
2023-02-24T18:51:03.972Z,6.69
2023-02-24T18:53:34.157Z,6.36
2023-02-24T18:56:02.640Z,6.98
2023-02-24T18:58:31.662Z,6.89
2023-02-24T19:01:00.837Z,6.95
2023-02-24T19:03:28.543Z,6.95
2023-02-24T19:05:56.638Z,6.75
2023-02-24T19:08:24.740Z,6.79
2023-02-24T19:10:54.660Z,7.00
2023-02-24T19:13:23.986Z,6.82
2023-02-24T19:15:52.098Z,7.29
2023-02-24T19:18:21.374Z,7.08
2023-02-24T19:20:49.087Z,7.05
2023-02-24T19:23:16.804Z,7.74
2023-02-24T19:25:44.799Z,7.59
2023-02-24T19:28:12.589Z,7.65
2023-02-24T19:30:41.020Z,7.41
2023-02-24T19:33:09.637Z,7.42
2023-02-24T19:35:42.660Z,7.72
2023-02-24T19:38:14.138Z,7.53
2023-02-24T19:40:41.969Z,7.76
2023-02-24T19:43:10.425Z,7.62
2023-02-24T19:45:41.690Z,7.78
2023-02-24T19:48:09.666Z,7.58
2023-02-24T19:50:41.622Z,7.55
2023-02-24T19:53:09.777Z,7.82
2023-02-24T19:55:37.657Z,7.59
2023-02-24T19:58:05.984Z,7.35
2023-02-24T20:00:33.757Z,6.78
2023-02-24T20:03:01.464Z,6.70
2023-02-24T20:05:29.252Z,6.08
2023-02-24T20:07:59.263Z,6.17
2023-02-24T20:10:27.013Z,6.48
2023-02-24T20:12:55.473Z,6.06
2023-02-24T20:15:23.148Z,6.37
2023-02-24T20:17:51.213Z,6.57
2023-02-24T20:20:18.951Z,6.61
2023-02-24T20:22:46.684Z,6.67
2023-02-24T20:25:15.776Z,6.66
2023-02-24T20:27:43.677Z,6.82
2023-02-24T20:30:12.841Z,6.38
2023-02-24T20:32:40.821Z,6.38
2023-02-24T20:35:11.116Z,6.48
2023-02-24T20:37:38.903Z,6.69
2023-02-24T20:40:08.893Z,6.49
2023-02-24T20:42:37.977Z,6.49
2023-02-24T20:45:07.976Z,6.62
2023-02-24T20:47:35.713Z,6.72
2023-02-24T20:50:05.684Z,6.95
2023-02-24T20:52:34.304Z,6.90
2023-02-24T20:55:02.459Z,6.98
2023-02-24T20:57:30.410Z,7.21
2023-02-24T21:00:04.298Z,6.30
2023-02-24T21:02:32.053Z,6.90
2023-02-24T21:04:59.808Z,6.68
2023-02-24T21:07:27.736Z,6.59
2023-02-24T21:09:55.492Z,6.03
2023-02-24T21:12:25.186Z,5.94
2023-02-24T21:14:52.934Z,6.08
2023-02-24T21:17:22.158Z,6.30
2023-02-24T21:19:49.910Z,5.94
2023-02-24T21:22:17.730Z,6.10
2023-02-24T21:24:45.572Z,5.96
2023-02-24T21:27:13.297Z,6.39
2023-02-24T21:29:41.015Z,6.06
2023-02-24T21:32:11.634Z,5.95
2023-02-24T21:34:40.856Z,6.01
2023-02-24T21:37:08.621Z,6.40
2023-02-24T21:39:37.875Z,6.28
2023-02-24T21:42:07.428Z,6.43
2023-02-24T21:44:35.204Z,6.10
2023-02-24T21:47:03.032Z,6.39
2023-02-24T21:49:30.776Z,6.23
2023-02-24T21:51:59.931Z,6.28
2023-02-24T21:54:27.777Z,6.42
2023-02-24T21:56:55.624Z,6.22
2023-02-24T21:59:23.640Z,6.13
2023-02-24T22:01:51.498Z,6.56
2023-02-24T22:04:20.531Z,6.58
2023-02-24T22:06:48.892Z,6.41
2023-02-24T22:09:20.152Z,6.14
2023-02-24T22:11:49.384Z,6.19
2023-02-24T22:14:17.927Z,6.50
2023-02-24T22:16:45.933Z,6.00
2023-02-24T22:19:14.394Z,6.60
2023-02-24T22:21:43.144Z,6.46
2023-02-24T22:24:14.014Z,6.40
2023-02-24T22:26:44.178Z,6.53
2023-02-24T22:29:12.527Z,5.71
2023-02-24T22:31:43.411Z,6.31
2023-02-24T22:34:13.098Z,6.23
2023-02-24T22:36:41.072Z,6.00
2023-02-24T22:39:09.364Z,5.84
2023-02-24T22:41:38.147Z,6.10
2023-02-24T22:44:07.723Z,6.65
2023-02-24T22:46:37.149Z,6.20
2023-02-24T22:49:05.227Z,6.35
2023-02-24T22:51:33.119Z,6.58
2023-02-24T22:54:00.877Z,5.96
2023-02-24T22:56:29.969Z,6.29
2023-02-24T22:58:58.440Z,6.28
2023-02-24T23:01:29.548Z,6.61
2023-02-24T23:04:00.268Z,6.08
2023-02-24T23:06:28.227Z,6.38
2023-02-24T23:08:57.542Z,6.37
2023-02-24T23:11:28.239Z,5.93
2023-02-24T23:13:58.736Z,6.13
2023-02-24T23:16:31.571Z,6.10
2023-02-24T23:19:00.939Z,5.84
2023-02-24T23:21:34.753Z,5.89
2023-02-24T23:24:03.343Z,6.25
2023-02-24T23:26:31.787Z,6.12
2023-02-24T23:28:59.723Z,6.00
2023-02-24T23:31:29.390Z,6.25
2023-02-24T23:33:57.976Z,6.29
2023-02-24T23:36:26.516Z,6.24
2023-02-24T23:38:54.324Z,6.13
2023-02-24T23:41:22.196Z,6.52
2023-02-24T23:43:49.930Z,6.21
2023-02-24T23:46:17.757Z,6.28
2023-02-24T23:48:47.032Z,6.17
2023-02-24T23:51:17.260Z,5.90
2023-02-24T23:53:46.630Z,5.48
2023-02-24T23:56:17.045Z,4.97
2023-02-24T23:58:45.543Z,5.36
